createdAt,value
2022-10-17T00:01:07.687Z,17.00
2022-10-17T00:03:35.954Z,17.00
2022-10-17T00:06:07.344Z,17.00
2022-10-17T00:08:34.334Z,17.00
2022-10-17T00:11:02.891Z,17.00
2022-10-17T00:13:29.846Z,16.90
2022-10-17T00:15:56.778Z,16.90
2022-10-17T00:18:23.912Z,16.90
2022-10-17T00:20:50.985Z,16.90
2022-10-17T00:23:18.158Z,17.00
2022-10-17T00:25:45.173Z,17.00
2022-10-17T00:28:12.702Z,17.00
2022-10-17T00:30:39.771Z,16.90
2022-10-17T00:33:06.725Z,16.90
2022-10-17T00:35:33.657Z,16.90
2022-10-17T00:38:00.496Z,16.90
2022-10-17T00:40:27.491Z,16.80
2022-10-17T00:42:54.396Z,16.80
2022-10-17T00:45:21.431Z,16.80
2022-10-17T00:47:51.791Z,16.80
2022-10-17T00:50:19.218Z,16.70
2022-10-17T00:52:47.043Z,16.70
2022-10-17T00:55:16.689Z,16.70
2022-10-17T00:57:44.966Z,16.70
2022-10-17T01:00:12.110Z,16.70
2022-10-17T01:02:39.501Z,16.70
2022-10-17T01:05:07.131Z,16.70
2022-10-17T01:07:37.181Z,16.60
2022-10-17T01:10:05.648Z,16.60
2022-10-17T01:12:48.166Z,16.60
2022-10-17T01:15:24.090Z,16.70
2022-10-17T01:18:09.572Z,16.60
2022-10-17T01:20:39.480Z,16.60
2022-10-17T01:23:25.976Z,16.60
2022-10-17T01:25:56.372Z,16.60
2022-10-17T01:28:29.516Z,16.60
2022-10-17T01:30:58.715Z,16.60
2022-10-17T01:33:38.948Z,16.50
2022-10-17T01:36:11.141Z,16.50
2022-10-17T01:38:53.334Z,16.60
2022-10-17T01:41:40.446Z,16.60
2022-10-17T01:44:19.296Z,16.60
2022-10-17T01:46:50.559Z,16.50
2022-10-17T01:49:19.903Z,16.50
2022-10-17T01:51:51.893Z,16.60
2022-10-17T01:54:21.580Z,16.50
2022-10-17T01:56:49.882Z,16.50
2022-10-17T01:59:22.946Z,16.60
2022-10-17T02:01:51.075Z,16.60
2022-10-17T02:04:18.389Z,16.60
2022-10-17T02:06:45.209Z,16.60
2022-10-17T02:09:19.516Z,16.60
2022-10-17T02:11:51.025Z,16.60
2022-10-17T02:14:24.856Z,16.60
2022-10-17T02:17:10.465Z,16.60
2022-10-17T02:19:37.484Z,16.60
2022-10-17T02:22:07.424Z,16.60
2022-10-17T02:24:54.877Z,16.60
2022-10-17T02:27:30.429Z,16.60
2022-10-17T02:30:01.020Z,16.60
2022-10-17T02:32:40.397Z,16.60
2022-10-17T02:35:09.354Z,16.60
2022-10-17T02:37:36.909Z,16.60
2022-10-17T02:40:04.874Z,16.50
2022-10-17T02:42:32.302Z,16.50
2022-10-17T02:45:00.503Z,16.50
2022-10-17T02:47:27.313Z,16.50
2022-10-17T02:49:56.028Z,16.50
2022-10-17T02:52:27.956Z,16.50
2022-10-17T02:54:59.003Z,16.50
2022-10-17T02:57:29.943Z,16.50
2022-10-17T02:59:58.483Z,16.40
2022-10-17T03:02:25.354Z,16.50
2022-10-17T03:04:52.417Z,16.40
2022-10-17T03:07:19.241Z,16.40
2022-10-17T03:09:46.062Z,16.40
2022-10-17T03:12:12.894Z,16.40
2022-10-17T03:14:39.714Z,16.40
2022-10-17T03:17:06.549Z,16.50
2022-10-17T03:19:33.393Z,16.40
2022-10-17T03:22:00.240Z,16.40
2022-10-17T03:24:27.588Z,16.40
2022-10-17T03:26:54.535Z,16.40
2022-10-17T03:29:21.402Z,16.50
2022-10-17T03:31:48.324Z,16.40
2022-10-17T03:34:17.928Z,16.50
2022-10-17T03:36:45.299Z,16.50
2022-10-17T03:39:12.196Z,16.50
2022-10-17T03:41:39.066Z,16.50
2022-10-17T03:44:06.016Z,16.60
2022-10-17T03:46:32.866Z,16.60
2022-10-17T03:49:00.126Z,16.60
2022-10-17T03:51:27.153Z,16.60
2022-10-17T03:53:54.192Z,16.70
2022-10-17T03:56:22.676Z,16.70
2022-10-17T03:58:49.902Z,16.80
2022-10-17T04:01:17.742Z,16.80
2022-10-17T04:03:44.741Z,16.80
2022-10-17T04:06:12.705Z,16.90
2022-10-17T04:08:39.787Z,16.90
2022-10-17T04:11:07.745Z,16.90
2022-10-17T04:13:35.525Z,16.90
2022-10-17T04:16:06.799Z,16.90
2022-10-17T04:18:34.103Z,17.00
2022-10-17T04:21:04.414Z,17.00
2022-10-17T04:23:31.349Z,17.00
2022-10-17T04:25:58.946Z,17.00
2022-10-17T04:28:26.900Z,17.00
2022-10-17T04:31:00.931Z,17.00
2022-10-17T04:33:28.106Z,17.00
2022-10-17T04:35:56.016Z,17.10
2022-10-17T04:38:27.620Z,17.00
2022-10-17T04:41:05.499Z,17.00
2022-10-17T04:43:33.222Z,17.00
2022-10-17T04:46:01.323Z,17.00
2022-10-17T04:48:28.954Z,17.00
2022-10-17T04:50:56.318Z,17.00
2022-10-17T04:53:23.708Z,17.00
2022-10-17T04:55:50.937Z,17.00
2022-10-17T04:58:17.826Z,17.10
2022-10-17T05:00:44.832Z,17.10
2022-10-17T05:03:11.771Z,17.10
2022-10-17T05:05:39.153Z,17.10
2022-10-17T05:08:07.114Z,17.10
2022-10-17T05:10:41.276Z,17.10
2022-10-17T05:13:08.847Z,17.10
2022-10-17T05:15:35.976Z,17.10
2022-10-17T05:18:02.862Z,17.10
2022-10-17T05:20:29.694Z,17.10
2022-10-17T05:22:58.776Z,17.10
2022-10-17T05:25:26.025Z,17.10
2022-10-17T05:27:53.426Z,17.10
2022-10-17T05:30:20.458Z,17.10
2022-10-17T05:32:47.305Z,17.10
2022-10-17T05:35:14.328Z,17.10
2022-10-17T05:37:41.188Z,17.10
2022-10-17T05:40:08.332Z,17.10
2022-10-17T05:42:35.313Z,17.10
2022-10-17T05:45:02.221Z,17.10
2022-10-17T05:47:29.440Z,17.10
2022-10-17T05:49:56.493Z,17.10
2022-10-17T05:52:23.468Z,17.00
2022-10-17T05:54:50.315Z,17.10
2022-10-17T05:57:17.672Z,17.10
2022-10-17T05:59:44.524Z,17.10
2022-10-17T06:02:14.949Z,17.10
2022-10-17T06:04:46.054Z,17.10
2022-10-17T06:07:13.195Z,17.10
2022-10-17T06:09:40.422Z,17.20
2022-10-17T06:12:07.591Z,17.20
2022-10-17T06:14:34.467Z,17.20
2022-10-17T06:17:01.618Z,17.20
2022-10-17T06:19:28.511Z,17.20
2022-10-17T06:21:55.313Z,17.20
2022-10-17T06:24:22.255Z,17.30
2022-10-17T06:26:50.181Z,17.20
2022-10-17T06:29:17.141Z,17.30
2022-10-17T06:31:44.047Z,17.30
2022-10-17T06:34:10.917Z,17.30
2022-10-17T06:36:37.867Z,17.30
2022-10-17T06:39:04.857Z,17.40
2022-10-17T06:41:31.801Z,17.40
2022-10-17T06:43:58.711Z,17.40
2022-10-17T06:46:27.008Z,17.30
2022-10-17T06:48:53.829Z,17.40
2022-10-17T06:51:20.705Z,17.40
2022-10-17T06:53:47.596Z,17.40
2022-10-17T06:56:14.473Z,17.40
2022-10-17T06:58:41.800Z,17.40
2022-10-17T07:01:10.139Z,17.50
2022-10-17T07:03:37.474Z,17.50
2022-10-17T07:06:04.702Z,17.50
2022-10-17T07:08:31.833Z,17.50
2022-10-17T07:10:59.179Z,17.50
2022-10-17T07:13:26.116Z,17.50
2022-10-17T07:15:53.076Z,17.50
2022-10-17T07:18:20.048Z,17.60
2022-10-17T07:20:53.017Z,17.60
2022-10-17T07:23:19.841Z,17.60
2022-10-17T07:25:46.681Z,17.60
2022-10-17T07:28:14.548Z,17.60
2022-10-17T07:30:41.425Z,17.60
2022-10-17T07:33:08.331Z,17.70
2022-10-17T07:35:35.285Z,17.70
2022-10-17T07:38:02.178Z,17.70
2022-10-17T07:40:29.065Z,17.80
2022-10-17T07:42:56.655Z,17.80
2022-10-17T07:45:24.081Z,17.90
2022-10-17T07:47:50.970Z,17.90
2022-10-17T07:50:17.822Z,17.90
2022-10-17T07:52:44.705Z,17.90
2022-10-17T07:55:11.547Z,17.90
2022-10-17T07:57:40.335Z,17.90
2022-10-17T08:00:08.099Z,18.00
2022-10-17T08:02:34.941Z,18.00
2022-10-17T08:05:01.779Z,18.00
2022-10-17T08:07:30.525Z,18.10
2022-10-17T08:09:57.399Z,18.00
2022-10-17T08:12:26.153Z,18.00
2022-10-17T08:14:53.140Z,18.10
2022-10-17T08:17:20.044Z,18.10
2022-10-17T08:19:46.855Z,18.10
2022-10-17T08:22:13.707Z,18.10
2022-10-17T08:24:40.617Z,18.10
2022-10-17T08:27:11.717Z,18.10
2022-10-17T08:29:39.219Z,18.10
2022-10-17T08:32:09.619Z,18.10
2022-10-17T08:34:36.866Z,18.10
2022-10-17T08:37:04.062Z,18.10
2022-10-17T08:39:30.978Z,18.10
2022-10-17T08:41:57.826Z,18.10
2022-10-17T08:44:43.670Z,18.10
2022-10-17T08:47:12.851Z,18.10
2022-10-17T08:49:42.931Z,18.10
2022-10-17T08:52:20.145Z,18.10
2022-10-17T08:54:48.448Z,18.10
2022-10-17T08:57:16.367Z,18.10
2022-10-17T08:59:43.923Z,18.10
2022-10-17T09:02:20.030Z,18.10
2022-10-17T09:04:49.910Z,18.10
2022-10-17T09:07:36.980Z,18.10
2022-10-17T09:10:04.116Z,18.10
2022-10-17T09:12:44.104Z,18.20
2022-10-17T09:15:11.107Z,18.20
2022-10-17T09:17:58.485Z,18.20
2022-10-17T09:20:28.270Z,18.20
2022-10-17T09:23:12.029Z,18.30
2022-10-17T09:25:46.037Z,18.20
2022-10-17T09:28:15.779Z,18.30
2022-10-17T09:30:45.919Z,18.30
2022-10-17T09:33:34.933Z,18.20
2022-10-17T09:36:10.981Z,18.20
2022-10-17T09:38:42.658Z,18.20
2022-10-17T09:41:43.035Z,18.30
2022-10-17T09:44:16.411Z,18.20
2022-10-17T09:46:50.321Z,18.30
2022-10-17T09:49:23.092Z,18.30
2022-10-17T09:51:50.037Z,18.30
2022-10-17T09:54:24.314Z,18.30
2022-10-17T09:56:58.889Z,18.30
2022-10-17T09:59:45.902Z,18.30
2022-10-17T10:02:12.762Z,18.30
2022-10-17T10:05:03.631Z,18.30
2022-10-17T10:07:33.306Z,18.40
2022-10-17T10:10:00.839Z,18.40
2022-10-17T10:12:32.694Z,18.40
2022-10-17T10:15:00.406Z,18.40
2022-10-17T10:17:29.984Z,18.50
2022-10-17T10:19:56.786Z,18.50
2022-10-17T10:22:24.040Z,18.50
2022-10-17T10:25:09.281Z,18.50
2022-10-17T10:27:36.711Z,18.50
2022-10-17T10:30:04.411Z,18.50
2022-10-17T10:32:37.003Z,18.50
2022-10-17T10:35:07.737Z,18.60
2022-10-17T10:37:43.600Z,18.60
2022-10-17T10:40:18.759Z,18.60
2022-10-17T10:42:53.294Z,18.60
2022-10-17T10:45:46.392Z,18.60
2022-10-17T10:48:14.410Z,18.60
2022-10-17T10:50:46.803Z,18.60
2022-10-17T10:53:35.165Z,18.60
2022-10-17T10:56:05.378Z,18.60
2022-10-17T10:58:54.419Z,18.60
2022-10-17T11:01:40.074Z,18.70
2022-10-17T11:04:25.488Z,18.70
2022-10-17T11:06:53.359Z,18.70
2022-10-17T11:09:34.578Z,18.70
2022-10-17T11:12:09.755Z,18.70
2022-10-17T11:14:55.189Z,18.80
2022-10-17T11:17:29.045Z,18.80
2022-10-17T11:20:12.175Z,18.80
2022-10-17T11:22:42.398Z,18.80
2022-10-17T11:25:09.243Z,18.80
2022-10-17T11:27:36.088Z,18.80
2022-10-17T11:30:04.049Z,18.80
2022-10-17T11:32:42.928Z,18.80
2022-10-17T11:35:16.855Z,18.80
2022-10-17T11:37:48.516Z,18.90
2022-10-17T11:40:31.408Z,18.90
2022-10-17T11:43:07.008Z,18.90
2022-10-17T11:45:35.341Z,18.90
2022-10-17T11:48:04.995Z,18.90
2022-10-17T11:53:24.487Z,19.00
2022-10-17T11:55:52.894Z,19.00
2022-10-17T11:58:45.859Z,19.00
2022-10-17T12:01:22.143Z,19.10
2022-10-17T12:03:58.068Z,19.20
2022-10-17T12:06:29.492Z,19.20
2022-10-17T12:08:56.518Z,19.20
2022-10-17T12:11:29.435Z,19.20
2022-10-17T12:13:56.963Z,19.20
2022-10-17T12:16:23.848Z,19.20
2022-10-17T12:19:02.771Z,19.20
2022-10-17T12:21:49.550Z,19.30
2022-10-17T12:24:34.445Z,19.30
2022-10-17T12:27:19.891Z,19.30
2022-10-17T12:29:48.490Z,19.40
2022-10-17T12:32:15.612Z,19.50
2022-10-17T12:34:55.134Z,19.50
2022-10-17T12:37:40.700Z,19.50
2022-10-17T12:40:27.521Z,19.60
2022-10-17T12:42:54.336Z,19.60
2022-10-17T12:45:59.642Z,19.60
2022-10-17T12:48:39.055Z,19.50
2022-10-17T12:54:10.276Z,19.50
2022-10-17T12:56:38.645Z,19.50
2022-10-17T12:59:14.005Z,19.40
2022-10-17T13:01:43.873Z,19.40
2022-10-17T13:04:11.498Z,19.40
2022-10-17T13:06:45.744Z,19.40
2022-10-17T13:09:18.817Z,19.40
2022-10-17T13:11:45.711Z,19.40
2022-10-17T13:14:13.650Z,19.40
2022-10-17T13:16:41.695Z,19.40
2022-10-17T13:19:15.584Z,19.40
2022-10-17T13:22:06.536Z,19.40
2022-10-17T13:24:34.072Z,19.40
2022-10-17T13:27:01.369Z,19.40
2022-10-17T13:29:29.824Z,19.40
2022-10-17T13:32:01.271Z,19.50
2022-10-17T13:34:28.652Z,19.50
2022-10-17T13:36:56.730Z,19.50
2022-10-17T13:39:38.178Z,19.50
2022-10-17T13:42:05.778Z,19.50
2022-10-17T13:44:34.116Z,19.50
2022-10-17T13:47:01.143Z,19.60
2022-10-17T13:49:28.232Z,19.60
2022-10-17T13:51:56.186Z,19.60
2022-10-17T13:54:25.814Z,19.60
2022-10-17T13:56:57.451Z,19.60
2022-10-17T13:59:26.186Z,19.60
2022-10-17T14:01:53.224Z,19.70
2022-10-17T14:04:20.718Z,19.70
2022-10-17T14:06:51.286Z,19.70
2022-10-17T14:09:19.055Z,19.70
2022-10-17T14:11:56.598Z,19.80
2022-10-17T14:14:24.873Z,19.80
2022-10-17T14:16:52.135Z,19.80
2022-10-17T14:19:18.949Z,19.80
2022-10-17T14:21:48.559Z,19.80
2022-10-17T14:24:35.770Z,19.80
2022-10-17T14:27:02.707Z,19.80
2022-10-17T14:29:29.723Z,19.80
2022-10-17T14:31:58.407Z,19.80
2022-10-17T14:34:28.196Z,19.90
2022-10-17T14:36:55.554Z,19.80
2022-10-17T14:39:23.402Z,19.80
2022-10-17T14:41:51.188Z,19.80
2022-10-17T14:44:21.194Z,19.80
2022-10-17T14:46:51.005Z,19.80
2022-10-17T14:49:38.570Z,19.90
2022-10-17T14:52:18.598Z,19.90
2022-10-17T14:54:47.099Z,19.90
2022-10-17T14:57:19.886Z,19.90
2022-10-17T14:59:55.390Z,19.90
2022-10-17T15:02:26.868Z,19.90
2022-10-17T15:04:54.248Z,20.00
2022-10-17T15:07:21.451Z,20.00
2022-10-17T15:09:49.065Z,20.00
2022-10-17T15:12:17.309Z,20.00
2022-10-17T15:14:44.872Z,20.00
2022-10-17T15:17:32.059Z,20.00
2022-10-17T15:19:59.223Z,20.00
2022-10-17T15:22:29.504Z,20.00
2022-10-17T15:24:56.427Z,20.00
2022-10-17T15:27:24.196Z,20.10
2022-10-17T15:29:51.745Z,20.20
2022-10-17T15:32:19.013Z,20.40
2022-10-17T15:34:46.022Z,20.50
2022-10-17T15:37:22.145Z,20.60
2022-10-17T15:39:53.614Z,20.70
2022-10-17T15:42:27.007Z,20.80
2022-10-17T15:44:53.991Z,20.90
2022-10-17T15:47:34.271Z,21.00
2022-10-17T15:50:02.298Z,21.00
2022-10-17T15:52:29.433Z,21.00
2022-10-17T15:54:58.514Z,21.00
2022-10-17T15:57:29.665Z,21.10
2022-10-17T15:59:57.658Z,21.10
2022-10-17T16:02:24.794Z,21.20
2022-10-17T16:04:51.950Z,21.20
2022-10-17T16:07:19.390Z,21.20
2022-10-17T16:09:46.751Z,21.20
2022-10-17T16:12:16.471Z,21.20
2022-10-17T16:14:43.502Z,21.20
2022-10-17T16:17:14.212Z,21.20
2022-10-17T16:19:41.445Z,21.20
2022-10-17T16:22:16.737Z,21.20
2022-10-17T16:24:43.571Z,21.10
2022-10-17T16:27:10.463Z,21.20
2022-10-17T16:29:37.436Z,21.10
2022-10-17T16:32:04.289Z,21.10
2022-10-17T16:34:32.563Z,21.00
2022-10-17T16:36:59.423Z,21.00
2022-10-17T16:42:13.058Z,20.90
2022-10-17T16:44:39.904Z,20.90
2022-10-17T16:47:06.780Z,20.80
2022-10-17T16:49:33.684Z,20.80
2022-10-17T16:52:00.527Z,20.80
2022-10-17T16:54:27.573Z,20.70
2022-10-17T16:56:54.701Z,20.70
2022-10-17T16:59:21.571Z,20.60
2022-10-17T17:01:48.395Z,20.60
2022-10-17T17:04:15.483Z,20.60
2022-10-17T17:06:42.531Z,20.60
2022-10-17T17:09:09.997Z,20.50
2022-10-17T17:11:37.608Z,20.50
2022-10-17T17:14:05.127Z,20.40
2022-10-17T17:16:33.343Z,20.40
2022-10-17T17:19:07.503Z,20.40
2022-10-17T17:21:35.125Z,20.30
2022-10-17T17:24:02.704Z,20.30
2022-10-17T17:26:31.381Z,20.30
2022-10-17T17:28:59.584Z,20.30
2022-10-17T17:31:28.039Z,20.20
2022-10-17T17:36:24.585Z,20.20
2022-10-17T17:38:53.796Z,20.20
2022-10-17T17:41:21.155Z,20.10
2022-10-17T17:43:48.375Z,20.10
2022-10-17T17:46:16.663Z,20.10
2022-10-17T17:48:44.003Z,20.00
2022-10-17T17:51:12.386Z,20.00
2022-10-17T17:53:39.504Z,20.00
2022-10-17T17:56:06.557Z,20.00
2022-10-17T17:58:33.920Z,19.90
2022-10-17T18:01:01.258Z,19.90
2022-10-17T18:03:28.364Z,19.90
2022-10-17T18:05:55.200Z,19.80
2022-10-17T18:08:22.110Z,19.80
2022-10-17T18:10:49.813Z,19.70
2022-10-17T18:13:16.874Z,19.70
2022-10-17T18:15:44.694Z,19.70
2022-10-17T18:18:11.563Z,19.60
2022-10-17T18:20:42.612Z,19.60
2022-10-17T18:23:10.252Z,19.60
2022-10-17T18:25:37.425Z,19.60
2022-10-17T18:28:04.389Z,19.60
2022-10-17T18:30:34.427Z,19.60
2022-10-17T18:33:01.508Z,19.50
2022-10-17T18:35:28.389Z,19.50
2022-10-17T18:37:57.155Z,19.50
2022-10-17T18:40:23.982Z,19.50
2022-10-17T18:42:50.856Z,19.50
2022-10-17T18:45:17.817Z,19.50
2022-10-17T18:47:47.311Z,19.50
2022-10-17T18:50:14.810Z,19.40
2022-10-17T18:52:41.632Z,19.40
2022-10-17T18:55:08.747Z,19.40
2022-10-17T18:57:35.673Z,19.40
2022-10-17T19:00:02.850Z,19.40
2022-10-17T19:02:33.162Z,19.30
2022-10-17T19:05:02.834Z,19.30
2022-10-17T19:07:29.971Z,19.30
2022-10-17T19:09:57.060Z,19.30
2022-10-17T19:12:24.024Z,19.30
2022-10-17T19:14:51.183Z,19.30
2022-10-17T19:17:18.001Z,19.20
2022-10-17T19:19:45.457Z,19.20
2022-10-17T19:22:12.255Z,19.20
2022-10-17T19:24:39.213Z,19.10
2022-10-17T19:27:06.991Z,19.10
2022-10-17T19:29:34.028Z,19.10
2022-10-17T19:32:01.085Z,19.10
2022-10-17T19:34:27.998Z,19.10
2022-10-17T19:36:55.961Z,19.10
2022-10-17T19:39:24.014Z,19.10
2022-10-17T19:41:51.043Z,19.00
2022-10-17T19:44:18.263Z,19.00
2022-10-17T19:46:47.100Z,19.00
2022-10-17T19:49:14.452Z,19.00
2022-10-17T19:51:41.373Z,18.90
2022-10-17T19:54:08.218Z,18.90
2022-10-17T19:56:38.372Z,18.80
2022-10-17T19:59:06.319Z,18.80
2022-10-17T20:01:34.267Z,18.70
2022-10-17T20:04:01.213Z,18.70
2022-10-17T20:06:28.066Z,18.70
2022-10-17T20:08:55.127Z,18.70
2022-10-17T20:11:23.139Z,18.70
2022-10-17T20:13:50.593Z,18.70
2022-10-17T20:16:21.418Z,18.60
2022-10-17T20:18:49.203Z,18.60
2022-10-17T20:21:17.690Z,18.50
2022-10-17T20:23:45.756Z,18.50
2022-10-17T20:26:39.005Z,18.50
2022-10-17T20:29:02.670Z,18.50
2022-10-17T20:31:29.870Z,18.50
2022-10-17T20:33:57.901Z,18.40
2022-10-17T20:36:25.568Z,18.40
2022-10-17T20:38:58.962Z,18.30
2022-10-17T20:41:26.436Z,18.30
2022-10-17T20:43:54.177Z,18.30
2022-10-17T20:46:35.866Z,18.30
2022-10-17T20:49:03.933Z,18.20
2022-10-17T20:51:31.013Z,18.20
2022-10-17T20:53:57.936Z,18.20
2022-10-17T20:56:26.059Z,18.10
2022-10-17T20:58:57.144Z,18.10
2022-10-17T21:01:25.039Z,18.00
2022-10-17T21:03:52.256Z,18.00
2022-10-17T21:06:19.711Z,18.00
2022-10-17T21:08:47.281Z,18.00
2022-10-17T21:11:15.862Z,17.90
2022-10-17T21:13:43.448Z,17.90
2022-10-17T21:16:14.563Z,17.90
2022-10-17T21:18:41.530Z,17.90
2022-10-17T21:21:12.874Z,17.90
2022-10-17T21:23:40.515Z,17.80
2022-10-17T21:26:09.430Z,17.90
2022-10-17T21:28:37.763Z,17.80
2022-10-17T21:31:13.869Z,17.90
2022-10-17T21:33:41.809Z,17.80
2022-10-17T21:36:09.063Z,17.80
2022-10-17T21:38:37.224Z,17.80
2022-10-17T21:41:05.092Z,17.80
2022-10-17T21:43:32.655Z,17.80
2022-10-17T21:46:06.568Z,17.80
2022-10-17T21:48:34.131Z,17.80
2022-10-17T21:51:02.253Z,17.70
2022-10-17T21:53:29.135Z,17.80
2022-10-17T21:55:58.803Z,17.80
2022-10-17T21:58:25.670Z,17.80
2022-10-17T22:00:52.645Z,17.70
2022-10-17T22:03:19.540Z,17.70
2022-10-17T22:05:46.408Z,17.70
2022-10-17T22:08:13.579Z,17.70
2022-10-17T22:10:40.607Z,17.60
2022-10-17T22:13:07.588Z,17.70
2022-10-17T22:15:34.666Z,17.60
2022-10-17T22:18:01.552Z,17.60
2022-10-17T22:20:28.600Z,17.60
2022-10-17T22:22:55.492Z,17.60
2022-10-17T22:25:22.311Z,17.60
2022-10-17T22:27:49.204Z,17.60
2022-10-17T22:30:16.128Z,17.60
2022-10-17T22:32:43.414Z,17.60
2022-10-17T22:35:10.554Z,17.60
2022-10-17T22:37:37.439Z,17.60
2022-10-17T22:40:05.285Z,17.60
2022-10-17T22:42:34.613Z,17.60
2022-10-17T22:45:02.912Z,17.60
2022-10-17T22:47:30.663Z,17.60
2022-10-17T22:49:57.768Z,17.60
2022-10-17T22:52:24.616Z,17.50
2022-10-17T22:54:51.532Z,17.50
2022-10-17T22:57:18.513Z,17.50
2022-10-17T22:59:45.606Z,17.50
2022-10-17T23:02:12.471Z,17.50
2022-10-17T23:04:39.353Z,17.50
2022-10-17T23:07:11.437Z,17.50
2022-10-17T23:09:38.756Z,17.50
2022-10-17T23:12:05.647Z,17.50
2022-10-17T23:14:32.834Z,17.50
2022-10-17T23:16:59.767Z,17.50
2022-10-17T23:19:26.723Z,17.50
2022-10-17T23:21:53.649Z,17.50
2022-10-17T23:24:20.617Z,17.50
2022-10-17T23:26:47.575Z,17.50
2022-10-17T23:29:14.415Z,17.50
2022-10-17T23:31:41.260Z,17.60
2022-10-17T23:34:08.179Z,17.60
2022-10-17T23:36:35.120Z,17.60
2022-10-17T23:39:02.187Z,17.60
2022-10-17T23:41:29.124Z,17.60
2022-10-17T23:43:56.185Z,17.60
2022-10-17T23:46:23.016Z,17.60
2022-10-17T23:48:49.869Z,17.60
2022-10-17T23:51:16.785Z,17.60
2022-10-17T23:53:43.884Z,17.60
2022-10-17T23:56:11.692Z,17.60
2022-10-17T23:58:42.347Z,17.60
